createdAt,value
2023-01-01T00:00:04.617Z,99429.72
2023-01-01T00:00:36.196Z,99427.53
2023-01-01T00:01:07.819Z,99432.47
2023-01-01T00:01:39.965Z,99415.81
2023-01-01T00:02:11.610Z,99414.19
2023-01-01T00:02:43.047Z,99430.25
2023-01-01T00:03:14.496Z,99426.19
2023-01-01T00:03:45.941Z,99423.78
2023-01-01T00:04:17.596Z,99428.72
2023-01-01T00:04:49.211Z,99413.97
2023-01-01T00:05:20.617Z,99421.06
2023-01-01T00:05:52.009Z,99424.88
2023-01-01T00:06:23.434Z,99445.28
2023-01-01T00:06:54.887Z,99428.41
2023-01-01T00:07:26.299Z,99430.84
2023-01-01T00:08:04.344Z,99424.59
2023-01-01T00:08:36.610Z,99431.34
2023-01-01T00:09:08.161Z,99442.56
2023-01-01T00:09:39.720Z,99444.47
2023-01-01T00:10:11.102Z,99446.09
2023-01-01T00:10:42.466Z,99448.00
2023-01-01T00:11:13.855Z,99437.09
2023-01-01T00:11:45.312Z,99445.28
2023-01-01T00:12:16.761Z,99431.34
2023-01-01T00:12:48.215Z,99434.06
2023-01-01T00:13:19.709Z,99451.53
2023-01-01T00:13:51.191Z,99430.53
2023-01-01T00:14:22.643Z,99433.28
2023-01-01T00:14:54.053Z,99452.66
2023-01-01T00:15:25.610Z,99441.97
2023-01-01T00:15:57.075Z,99446.09
2023-01-01T00:16:28.627Z,99457.50
2023-01-01T00:17:00.133Z,99454.78
2023-01-01T00:17:31.649Z,99444.19
2023-01-01T00:18:03.086Z,99449.94
2023-01-01T00:18:34.799Z,99448.81
2023-01-01T00:19:06.281Z,99452.66
2023-01-01T00:19:37.778Z,99434.38
2023-01-01T00:20:09.242Z,99437.91
2023-01-01T00:20:40.736Z,99443.66
2023-01-01T00:21:12.191Z,99447.19
2023-01-01T00:21:43.648Z,99448.00
2023-01-01T00:22:52.865Z,99443.38
2023-01-01T00:23:06.451Z,99451.53
2023-01-01T00:23:37.937Z,99445.59
2023-01-01T00:24:09.422Z,99448.00
2023-01-01T00:24:40.950Z,99437.09
2023-01-01T00:25:12.377Z,99455.38
2023-01-01T00:25:43.868Z,99464.66
2023-01-01T00:26:15.332Z,99455.38
2023-01-01T00:26:46.739Z,99461.34
2023-01-01T00:27:18.211Z,99459.41
2023-01-01T00:27:49.603Z,99453.97
2023-01-01T00:28:21.075Z,99457.81
2023-01-01T00:28:52.544Z,99463.56
2023-01-01T00:29:24.171Z,99448.81
2023-01-01T00:29:55.580Z,99452.66
2023-01-01T00:30:27.006Z,99452.97
2023-01-01T00:30:58.534Z,99457.59
2023-01-01T00:31:30.020Z,99451.84
2023-01-01T00:32:01.553Z,99456.50
2023-01-01T00:32:33.202Z,99461.94
2023-01-01T00:33:04.589Z,99454.28
2023-01-01T00:33:36.585Z,99451.53
2023-01-01T00:34:08.005Z,99464.06
2023-01-01T00:34:39.425Z,99452.66
2023-01-01T00:35:10.812Z,99458.91
2023-01-01T00:35:42.321Z,99445.59
2023-01-01T00:36:13.804Z,99451.03
2023-01-01T00:36:45.237Z,99459.72
2023-01-01T00:37:16.701Z,99444.78
2023-01-01T00:37:48.105Z,99458.09
2023-01-01T00:38:19.618Z,99471.13
2023-01-01T00:38:51.113Z,99452.06
2023-01-01T00:39:22.507Z,99459.81
2023-01-01T00:39:53.936Z,99469.00
2023-01-01T00:40:25.398Z,99459.72
2023-01-01T00:40:57.636Z,99458.91
2023-01-01T00:41:29.077Z,99458.91
2023-01-01T00:42:00.554Z,99447.19
2023-01-01T00:42:31.987Z,99467.09
2023-01-01T00:43:03.396Z,99451.03
2023-01-01T00:43:34.833Z,99469.00
2023-01-01T00:44:06.260Z,99429.72
2023-01-01T00:44:37.663Z,99447.19
2023-01-01T00:45:09.217Z,99446.69
2023-01-01T00:45:41.072Z,99443.97
2023-01-01T00:46:12.671Z,99451.03
2023-01-01T00:46:44.120Z,99447.50
2023-01-01T00:47:15.670Z,99437.09
2023-01-01T00:47:47.156Z,99442.56
2023-01-01T00:48:18.579Z,99444.47
2023-01-01T00:48:50.075Z,99445.59
2023-01-01T00:49:21.484Z,99436.00
2023-01-01T00:49:52.896Z,99436.28
2023-01-01T00:50:24.357Z,99429.72
2023-01-01T00:50:55.773Z,99440.13
2023-01-01T00:51:30.430Z,99462.75
2023-01-01T00:52:04.537Z,99436.28
2023-01-01T00:52:36.091Z,99440.13
2023-01-01T00:53:07.544Z,99446.91
2023-01-01T00:53:38.999Z,99432.47
2023-01-01T00:54:10.399Z,99447.19
2023-01-01T00:54:41.829Z,99437.09
2023-01-01T00:55:13.283Z,99454.28
2023-01-01T00:55:44.704Z,99432.75
2023-01-01T00:56:16.156Z,99419.94
2023-01-01T00:56:47.764Z,99423.47
2023-01-01T00:57:19.197Z,99421.06
2023-01-01T00:57:50.681Z,99449.41
2023-01-01T00:58:22.356Z,99429.22
2023-01-01T00:59:00.756Z,99420.75
2023-01-01T00:59:33.456Z,99428.41
2023-01-01T01:00:05.175Z,99427.00
2023-01-01T01:00:36.686Z,99428.13
2023-01-01T01:01:08.147Z,99443.66
2023-01-01T01:01:39.718Z,99423.78
2023-01-01T01:02:11.264Z,99425.41
2023-01-01T01:02:43.083Z,99436.28
2023-01-01T01:03:14.640Z,99436.28
2023-01-01T01:03:46.149Z,99447.00
2023-01-01T01:04:17.649Z,99450.22
2023-01-01T01:04:49.259Z,99442.66
2023-01-01T01:05:20.691Z,99431.97
2023-01-01T01:05:52.181Z,99446.69
2023-01-01T01:06:23.589Z,99431.66
2023-01-01T01:06:54.991Z,99451.63
2023-01-01T01:07:26.434Z,99434.97
2023-01-01T01:07:57.842Z,99437.72
2023-01-01T01:08:31.316Z,99434.69
2023-01-01T01:09:02.911Z,99447.19
2023-01-01T01:09:34.564Z,99443.97
2023-01-01T01:10:05.949Z,99449.41
2023-01-01T01:10:37.527Z,99445.59
2023-01-01T01:11:08.977Z,99459.31
2023-01-01T01:11:40.405Z,99468.81
2023-01-01T01:12:18.691Z,99464.66
2023-01-01T01:12:50.580Z,99446.59
2023-01-01T01:13:22.077Z,99458.09
2023-01-01T01:13:53.547Z,99442.34
2023-01-01T01:14:24.969Z,99443.97
2023-01-01T01:14:56.452Z,99460.63
2023-01-01T01:15:27.864Z,99450.53
2023-01-01T01:15:59.288Z,99457.59
2023-01-01T01:16:30.801Z,99458.41
2023-01-01T01:17:02.365Z,99450.22
2023-01-01T01:17:33.934Z,99455.97
2023-01-01T01:18:05.357Z,99452.44
2023-01-01T01:18:36.852Z,99453.25
2023-01-01T01:19:08.280Z,99462.53
2023-01-01T01:19:39.668Z,99457.91
2023-01-01T01:20:11.222Z,99451.03
2023-01-01T01:20:42.655Z,99456.50
2023-01-01T01:21:14.107Z,99463.56
2023-01-01T01:21:45.606Z,99452.97
2023-01-01T01:22:17.087Z,99448.63
2023-01-01T01:22:48.510Z,99469.81
2023-01-01T01:23:19.950Z,99436.28
2023-01-01T01:23:51.372Z,99442.88
2023-01-01T01:24:22.876Z,99437.09
2023-01-01T01:24:54.315Z,99444.47
2023-01-01T01:25:25.700Z,99434.69
2023-01-01T01:25:57.172Z,99442.88
2023-01-01T01:26:28.617Z,99455.97
2023-01-01T01:27:00.106Z,99438.31
2023-01-01T01:27:31.524Z,99436.91
2023-01-01T01:28:02.929Z,99448.63
2023-01-01T01:28:34.372Z,99444.56
2023-01-01T01:29:05.890Z,99466.69
2023-01-01T01:29:37.313Z,99447.28
2023-01-01T01:30:08.829Z,99451.13
2023-01-01T01:30:40.315Z,99467.19
2023-01-01T01:31:11.868Z,99457.59
2023-01-01T01:31:43.331Z,99448.91
2023-01-01T01:32:14.767Z,99454.38
2023-01-01T01:32:46.265Z,99457.09
2023-01-01T01:33:17.704Z,99456.28
2023-01-01T01:33:49.116Z,99454.06
2023-01-01T01:34:25.719Z,99458.41
2023-01-01T01:34:59.148Z,99451.63
2023-01-01T01:35:30.644Z,99465.78
2023-01-01T01:36:02.069Z,99461.75
2023-01-01T01:36:33.508Z,99454.66
2023-01-01T01:37:04.954Z,99463.16
2023-01-01T01:37:36.399Z,99478.19
2023-01-01T01:38:08.125Z,99450.03
2023-01-01T01:38:39.527Z,99471.03
2023-01-01T01:39:10.991Z,99468.38
2023-01-01T01:39:42.416Z,99482.75
2023-01-01T01:40:13.855Z,99478.91
2023-01-01T01:40:45.363Z,99472.84
2023-01-01T01:41:27.239Z,99474.25
2023-01-01T01:41:59.570Z,99478.50
2023-01-01T01:42:30.946Z,99470.13
2023-01-01T01:43:02.431Z,99472.84
2023-01-01T01:43:33.857Z,99468.81
2023-01-01T01:44:05.295Z,99466.88
2023-01-01T01:44:36.716Z,99485.75
2023-01-01T01:45:08.184Z,99465.78
2023-01-01T01:45:39.709Z,99472.84
2023-01-01T01:46:11.219Z,99479.09
2023-01-01T01:46:42.840Z,99460.94
2023-01-01T01:47:14.276Z,99475.66
2023-01-01T01:47:45.805Z,99508.59
2023-01-01T01:48:17.325Z,99480.72
2023-01-01T01:48:48.781Z,99476.38
2023-01-01T01:49:20.176Z,99477.19
2023-01-01T01:49:51.607Z,99483.97
2023-01-01T01:50:23.067Z,99495.97
2023-01-01T01:50:54.521Z,99476.38
2023-01-01T01:51:25.973Z,99481.22
2023-01-01T01:51:57.386Z,99476.69
2023-01-01T01:52:28.979Z,99464.97
2023-01-01T01:53:00.388Z,99476.19
2023-01-01T01:53:31.891Z,99475.66
2023-01-01T01:54:03.305Z,99479.41
2023-01-01T01:54:34.738Z,99494.66
2023-01-01T01:55:06.160Z,99480.53
2023-01-01T01:55:37.565Z,99491.94
2023-01-01T01:56:09.234Z,99475.28
2023-01-01T01:56:40.765Z,99482.66
2023-01-01T01:57:12.217Z,99473.66
2023-01-01T01:57:43.672Z,99478.81
2023-01-01T01:58:15.068Z,99470.94
2023-01-01T01:58:46.606Z,99462.25
2023-01-01T01:59:18.235Z,99477.50
2023-01-01T01:59:49.676Z,99487.59
2023-01-01T02:00:21.120Z,99486.47
2023-01-01T02:00:52.520Z,99491.94
2023-01-01T02:01:23.963Z,99485.66
2023-01-01T02:01:55.575Z,99501.22
2023-01-01T02:02:27.145Z,99483.25
2023-01-01T02:02:58.756Z,99490.31
2023-01-01T02:03:30.219Z,99493.03
2023-01-01T02:04:01.746Z,99491.94
2023-01-01T02:04:33.166Z,99483.44
2023-01-01T02:05:04.642Z,99506.66
2023-01-01T02:05:36.126Z,99496.06
2023-01-01T02:06:07.654Z,99487.88
2023-01-01T02:06:39.190Z,99496.66
2023-01-01T02:07:10.702Z,99495.25
2023-01-01T02:07:42.097Z,99488.41
2023-01-01T02:08:13.577Z,99496.88
2023-01-01T02:08:44.953Z,99497.97
2023-01-01T02:09:16.415Z,99496.88
2023-01-01T02:09:47.877Z,99496.38
2023-01-01T02:10:19.277Z,99484.34
2023-01-01T02:10:50.780Z,99512.13
2023-01-01T02:11:22.320Z,99501.22
2023-01-01T02:11:53.790Z,99521.41
2023-01-01T02:12:25.175Z,99492.22
2023-01-01T02:12:56.659Z,99497.97
2023-01-01T02:13:28.129Z,99493.56
2023-01-01T02:13:59.547Z,99495.16
2023-01-01T02:14:31.085Z,99487.59
2023-01-01T02:15:05.490Z,99491.41
2023-01-01T02:15:37.060Z,99502.31
2023-01-01T02:16:08.576Z,99497.69
2023-01-01T02:16:40.056Z,99496.38
2023-01-01T02:17:11.478Z,99500.41
2023-01-01T02:17:42.889Z,99499.91
2023-01-01T02:18:14.384Z,99499.31
2023-01-01T02:18:45.816Z,99523.31
2023-01-01T02:19:17.229Z,99494.44
2023-01-01T02:19:48.739Z,99514.03
2023-01-01T02:20:20.148Z,99503.66
2023-01-01T02:20:51.593Z,99503.94
2023-01-01T02:21:23.047Z,99498.78
2023-01-01T02:21:54.552Z,99491.94
2023-01-01T02:22:26.010Z,99484.06
2023-01-01T02:23:03.921Z,99507.19
2023-01-01T02:23:35.737Z,99497.91
2023-01-01T02:24:07.204Z,99506.38
2023-01-01T02:24:38.652Z,99505.06
2023-01-01T02:25:10.357Z,99507.28
2023-01-01T02:25:41.899Z,99504.53
2023-01-01T02:26:13.321Z,99509.41
2023-01-01T02:26:44.825Z,99518.69
2023-01-01T02:27:16.230Z,99504.75
2023-01-01T02:27:47.661Z,99504.25
2023-01-01T02:28:19.064Z,99489.50
2023-01-01T02:28:50.495Z,99507.78
2023-01-01T02:29:21.949Z,99481.94
2023-01-01T02:29:53.390Z,99487.88
2023-01-01T02:30:24.940Z,99487.88
2023-01-01T02:30:56.586Z,99502.03
2023-01-01T02:31:28.093Z,99489.50
2023-01-01T02:31:59.654Z,99495.78
2023-01-01T02:32:31.183Z,99483.75
2023-01-01T02:33:02.626Z,99499.81
2023-01-01T02:33:34.020Z,99494.97
2023-01-01T02:34:05.452Z,99499.59
2023-01-01T02:34:36.857Z,99498.28
2023-01-01T02:35:08.277Z,99510.28
2023-01-01T02:35:39.723Z,99507.28
2023-01-01T02:36:11.191Z,99488.19
2023-01-01T02:36:42.680Z,99497.97
2023-01-01T02:37:14.159Z,99491.41
2023-01-01T02:37:45.629Z,99485.47
2023-01-01T02:38:17.033Z,99480.59
2023-01-01T02:38:48.571Z,99497.66
2023-01-01T02:39:20.013Z,99483.13
2023-01-01T02:39:51.519Z,99496.16
2023-01-01T02:40:22.970Z,99486.88
2023-01-01T02:40:54.480Z,99478.91
2023-01-01T02:41:25.930Z,99487.38
2023-01-01T02:41:57.403Z,99483.44
2023-01-01T02:42:28.837Z,99480.22
2023-01-01T02:43:00.239Z,99483.25
2023-01-01T02:43:31.663Z,99495.56
2023-01-01T02:44:33.335Z,99501.31
2023-01-01T02:45:04.772Z,99489.28
2023-01-01T02:45:36.146Z,99504.53
2023-01-01T02:46:07.739Z,99494.25
2023-01-01T02:46:39.369Z,99500.72
2023-01-01T02:47:10.792Z,99482.94
2023-01-01T02:47:42.177Z,99529.59
2023-01-01T02:48:13.628Z,99483.75
2023-01-01T02:48:45.051Z,99481.03
2023-01-01T02:49:16.645Z,99490.81
2023-01-01T02:49:48.078Z,99481.84
2023-01-01T02:50:19.524Z,99511.22
2023-01-01T02:50:50.988Z,99498.41
2023-01-01T02:51:22.430Z,99499.50
2023-01-01T02:51:53.943Z,99487.00
2023-01-01T02:52:25.353Z,99498.69
2023-01-01T02:52:56.741Z,99518.91
2023-01-01T02:53:28.259Z,99495.16
2023-01-01T02:53:59.695Z,99492.44
2023-01-01T02:54:31.150Z,99478.50
2023-01-01T02:55:02.580Z,99477.50
2023-01-01T02:55:34.053Z,99487.59
2023-01-01T02:56:05.585Z,99494.66
2023-01-01T02:56:37.099Z,99488.69
2023-01-01T02:57:08.494Z,99495.47
2023-01-01T02:57:39.920Z,99490.81
2023-01-01T02:58:11.425Z,99492.44
2023-01-01T02:58:42.817Z,99499.50
2023-01-01T02:59:14.217Z,99494.97
2023-01-01T02:59:45.645Z,99499.31
2023-01-01T03:00:17.160Z,99483.75
2023-01-01T03:00:48.671Z,99505.25
2023-01-01T03:01:20.268Z,99490.63
2023-01-01T03:01:51.964Z,99492.75
2023-01-01T03:02:23.501Z,99505.56
2023-01-01T03:02:55.291Z,99497.69
2023-01-01T03:03:26.851Z,99498.50
2023-01-01T03:03:58.360Z,99490.31
2023-01-01T03:04:29.791Z,99484.88
2023-01-01T03:05:01.294Z,99488.41
2023-01-01T03:05:32.710Z,99496.88
2023-01-01T03:06:04.152Z,99487.38
2023-01-01T03:06:35.567Z,99486.78
2023-01-01T03:07:07.191Z,99489.19
2023-01-01T03:07:38.636Z,99511.53
2023-01-01T03:08:10.039Z,99480.44
2023-01-01T03:08:41.495Z,99475.78
2023-01-01T03:09:12.928Z,99479.09
2023-01-01T03:09:44.428Z,99486.47
2023-01-01T03:10:15.975Z,99502.53
2023-01-01T03:10:47.405Z,99499.81
2023-01-01T03:11:18.828Z,99496.56
2023-01-01T03:11:50.316Z,99493.56
2023-01-01T03:12:21.831Z,99491.94
2023-01-01T03:12:53.321Z,99513.75
2023-01-01T03:13:24.770Z,99500.41
2023-01-01T03:13:56.202Z,99508.00
2023-01-01T03:14:27.651Z,99496.28
2023-01-01T03:14:59.078Z,99467.69
2023-01-01T03:15:30.602Z,99479.72
2023-01-01T03:16:02.093Z,99487.09
2023-01-01T03:16:33.581Z,99492.53
2023-01-01T03:17:05.024Z,99511.91
2023-01-01T03:17:36.544Z,99502.31
2023-01-01T03:18:07.978Z,99503.44
2023-01-01T03:18:39.415Z,99501.22
2023-01-01T03:19:11.095Z,99523.03
2023-01-01T03:19:42.682Z,99498.19
2023-01-01T03:20:14.112Z,99519.50
2023-01-01T03:20:45.626Z,99527.69
2023-01-01T03:21:47.175Z,99505.88
2023-01-01T03:22:18.660Z,99503.13
2023-01-01T03:22:50.166Z,99490.63
2023-01-01T03:23:21.627Z,99504.53
2023-01-01T03:23:53.092Z,99497.19
2023-01-01T03:24:24.526Z,99489.00
2023-01-01T03:24:55.990Z,99498.28
2023-01-01T03:25:27.437Z,99512.22
2023-01-01T03:25:58.872Z,99488.50
2023-01-01T03:26:30.324Z,99514.63
2023-01-01T03:27:01.751Z,99511.63
2023-01-01T03:27:33.192Z,99510.50
2023-01-01T03:28:04.707Z,99500.72
2023-01-01T03:28:36.305Z,99525.25
2023-01-01T03:29:07.728Z,99508.88
2023-01-01T03:29:39.186Z,99508.59
2023-01-01T03:30:10.611Z,99522.72
2023-01-01T03:30:42.063Z,99510.22
2023-01-01T03:31:13.454Z,99546.16
2023-01-01T03:31:44.905Z,99527.38
2023-01-01T03:32:16.332Z,99496.88
2023-01-01T03:32:47.820Z,99512.63
2023-01-01T03:33:19.363Z,99546.47
2023-01-01T03:33:50.767Z,99512.94
2023-01-01T03:34:22.213Z,99528.19
2023-01-01T03:34:53.718Z,99528.19
2023-01-01T03:35:25.111Z,99510.50
2023-01-01T03:35:56.583Z,99501.81
2023-01-01T03:36:28.003Z,99531.81
2023-01-01T03:36:59.442Z,99525.53
2023-01-01T03:37:30.857Z,99502.94
2023-01-01T03:38:02.324Z,99504.84
2023-01-01T03:38:33.823Z,99520.09
2023-01-01T03:39:05.257Z,99520.91
2023-01-01T03:39:36.715Z,99517.38
2023-01-01T03:40:08.130Z,99503.72
2023-01-01T03:40:39.523Z,99518.69
2023-01-01T03:41:10.922Z,99503.13
2023-01-01T03:41:42.283Z,99523.31
2023-01-01T03:42:13.916Z,99517.06
2023-01-01T03:42:45.319Z,99508.88
2023-01-01T03:43:16.718Z,99516.56
2023-01-01T03:43:48.184Z,99538.06
2023-01-01T03:44:19.600Z,99526.88
2023-01-01T03:44:51.100Z,99527.97
2023-01-01T03:45:22.506Z,99518.47
2023-01-01T03:45:53.944Z,99514.63
2023-01-01T03:46:25.416Z,99513.81
2023-01-01T03:46:56.978Z,99517.06
2023-01-01T03:47:28.443Z,99513.22
2023-01-01T03:47:59.842Z,99501.53
2023-01-01T03:48:31.295Z,99503.44
2023-01-01T03:49:04.448Z,99494.44
2023-01-01T03:49:36.082Z,99497.47
2023-01-01T03:50:07.547Z,99522.81
2023-01-01T03:50:38.997Z,99516.56
2023-01-01T03:51:10.534Z,99516.56
2023-01-01T03:51:41.985Z,99509.50
2023-01-01T03:52:13.420Z,99498.59
2023-01-01T03:52:44.849Z,99515.44
2023-01-01T03:53:16.287Z,99511.63
2023-01-01T03:53:47.697Z,99509.69
2023-01-01T03:54:19.129Z,99505.34
2023-01-01T03:54:56.733Z,99510.00
2023-01-01T03:55:30.054Z,99504.84
2023-01-01T03:56:01.506Z,99512.72
2023-01-01T03:56:32.933Z,99522.53
2023-01-01T03:57:04.349Z,99513.03
2023-01-01T03:57:35.871Z,99521.50
2023-01-01T03:58:07.276Z,99524.22
2023-01-01T03:58:38.714Z,99504.03
2023-01-01T03:59:10.160Z,99508.69
2023-01-01T03:59:41.691Z,99517.66
2023-01-01T04:00:13.096Z,99499.09
2023-01-01T04:00:44.519Z,99521.50
2023-01-01T04:01:16.070Z,99510.28
2023-01-01T04:01:47.597Z,99512.81
2023-01-01T04:02:19.155Z,99517.66
2023-01-01T04:02:50.570Z,99527.47
2023-01-01T04:03:21.994Z,99525.53
2023-01-01T04:03:53.447Z,99535.63
2023-01-01T04:04:24.867Z,99545.72
2023-01-01T04:04:56.367Z,99529.38
2023-01-01T04:05:27.792Z,99529.38
2023-01-01T04:05:59.276Z,99535.84
2023-01-01T04:06:30.732Z,99546.25
2023-01-01T04:07:14.295Z,99557.16
2023-01-01T04:08:16.930Z,99517.88
2023-01-01T04:08:48.281Z,99527.16
2023-01-01T04:09:19.719Z,99516.84
2023-01-01T04:09:51.137Z,99524.72
2023-01-01T04:10:22.596Z,99524.13
2023-01-01T04:10:54.020Z,99522.81
2023-01-01T04:11:25.472Z,99538.88
2023-01-01T04:11:56.983Z,99525.25
2023-01-01T04:12:28.437Z,99525.53
2023-01-01T04:12:59.893Z,99531.81
2023-01-01T04:13:31.301Z,99542.72
2023-01-01T04:14:02.855Z,99545.44
2023-01-01T04:14:34.260Z,99535.03
2023-01-01T04:15:05.709Z,99536.16
2023-01-01T04:15:37.176Z,99534.53
2023-01-01T04:16:08.640Z,99563.41
2023-01-01T04:16:40.187Z,99527.97
2023-01-01T04:17:11.687Z,99550.88
2023-01-01T04:17:43.163Z,99541.91
2023-01-01T04:18:14.641Z,99538.66
2023-01-01T04:18:46.033Z,99532.41
2023-01-01T04:19:17.442Z,99532.41
2023-01-01T04:19:53.237Z,99534.03
2023-01-01T04:20:26.515Z,99542.72
2023-01-01T04:20:57.955Z,99572.69
2023-01-01T04:21:29.353Z,99540.06
2023-01-01T04:22:00.828Z,99554.22
2023-01-01T04:22:32.273Z,99581.47
2023-01-01T04:23:03.771Z,99542.78
2023-01-01T04:23:35.315Z,99555.84
2023-01-01T04:24:06.755Z,99559.88
2023-01-01T04:24:38.245Z,99564.53
2023-01-01T04:25:09.679Z,99560.16
2023-01-01T04:25:41.073Z,99539.47
2023-01-01T04:26:12.590Z,99550.38
2023-01-01T04:26:43.961Z,99545.53
2023-01-01T04:27:15.440Z,99562.09
2023-01-01T04:27:46.925Z,99545.72
2023-01-01T04:28:18.442Z,99566.44
2023-01-01T04:28:49.933Z,99562.38
2023-01-01T04:29:21.348Z,99544.13
2023-01-01T04:29:52.785Z,99554.22
2023-01-01T04:30:24.249Z,99560.25
2023-01-01T04:31:25.868Z,99558.84
2023-01-01T04:31:57.222Z,99586.63
2023-01-01T04:32:28.667Z,99563.78
2023-01-01T04:33:00.167Z,99584.50
2023-01-01T04:33:31.559Z,99582.28
2023-01-01T04:34:02.963Z,99573.81
2023-01-01T04:34:34.395Z,99594.00
2023-01-01T04:35:05.909Z,99576.63
2023-01-01T04:35:37.429Z,99583.38
2023-01-01T04:36:08.886Z,99594.50
2023-01-01T04:36:40.305Z,99600.75
2023-01-01T04:37:13.546Z,99581.97
2023-01-01T04:37:45.265Z,99616.81
2023-01-01T04:38:16.678Z,99595.09
2023-01-01T04:38:48.078Z,99576.81
2023-01-01T04:39:19.535Z,99579.25
2023-01-01T04:39:51.078Z,99590.16
2023-01-01T04:40:22.491Z,99601.06
2023-01-01T04:40:53.911Z,99575.50
2023-01-01T04:41:25.441Z,99579.56
2023-01-01T04:41:56.993Z,99580.66
2023-01-01T04:42:28.423Z,99578.75
2023-01-01T04:42:59.859Z,99577.13
2023-01-01T04:43:31.302Z,99575.81
2023-01-01T04:44:02.717Z,99567.31
2023-01-01T04:44:34.173Z,99572.47
2023-01-01T04:45:05.632Z,99564.53
2023-01-01T04:45:37.091Z,99556.63
2023-01-01T04:46:08.722Z,99564.31
2023-01-01T04:46:40.193Z,99556.13
2023-01-01T04:47:11.648Z,99571.06
2023-01-01T04:47:43.185Z,99560.47
2023-01-01T04:48:14.628Z,99558.25
2023-01-01T04:48:46.149Z,99549.06
2023-01-01T04:49:17.567Z,99571.16
2023-01-01T04:49:48.995Z,99553.41
2023-01-01T04:50:20.457Z,99565.72
2023-01-01T04:50:51.886Z,99559.66
2023-01-01T04:51:23.278Z,99576.81
2023-01-01T04:51:54.665Z,99560.78
2023-01-01T04:52:26.237Z,99563.50
2023-01-01T04:52:57.693Z,99567.31
2023-01-01T04:53:29.228Z,99561.56
2023-01-01T04:54:00.798Z,99558.34
2023-01-01T04:54:32.234Z,99564.91
2023-01-01T04:55:03.652Z,99574.69
2023-01-01T04:55:35.239Z,99581.16
2023-01-01T04:56:06.659Z,99584.19
2023-01-01T04:56:38.131Z,99564.59
2023-01-01T04:57:09.587Z,99568.13
2023-01-01T04:57:41.073Z,99570.56
2023-01-01T04:58:12.491Z,99565.13
2023-01-01T04:58:43.919Z,99585.81
2023-01-01T04:59:15.319Z,99572.47
2023-01-01T04:59:46.738Z,99568.44
2023-01-01T05:00:18.166Z,99570.56
2023-01-01T05:00:49.759Z,99574.63
2023-01-01T05:01:21.264Z,99566.72
2023-01-01T05:01:52.902Z,99572.19
2023-01-01T05:02:24.614Z,99579.25
2023-01-01T05:02:56.154Z,99572.78
2023-01-01T05:03:27.611Z,99578.22
2023-01-01T05:03:59.045Z,99579.34
2023-01-01T05:04:30.496Z,99584.78
2023-01-01T05:05:01.902Z,99575.81
2023-01-01T05:05:33.301Z,99570.56
2023-01-01T05:06:04.794Z,99575.00
2023-01-01T05:06:36.198Z,99554.00
2023-01-01T05:07:07.655Z,99558.13
2023-01-01T05:07:39.068Z,99547.72
2023-01-01T05:08:10.481Z,99552.09
2023-01-01T05:08:41.937Z,99548.25
2023-01-01T05:09:13.359Z,99551.78
2023-01-01T05:09:44.892Z,99570.06
2023-01-01T05:10:16.327Z,99577.63
2023-01-01T05:10:47.787Z,99586.91
2023-01-01T05:11:19.236Z,99555.03
2023-01-01T05:11:50.607Z,99565.91
2023-01-01T05:12:22.013Z,99569.47
2023-01-01T05:12:53.440Z,99577.63
2023-01-01T05:13:24.831Z,99572.19
2023-01-01T05:13:56.274Z,99576.53
2023-01-01T05:14:27.715Z,99576.81
2023-01-01T05:14:59.113Z,99574.91
2023-01-01T05:15:30.569Z,99584.41
2023-01-01T05:16:02.068Z,99581.97
2023-01-01T05:16:33.689Z,99567.84
2023-01-01T05:17:05.167Z,99567.84
2023-01-01T05:17:36.571Z,99570.25
2023-01-01T05:18:07.962Z,99558.84
2023-01-01T05:18:39.474Z,99576.00
2023-01-01T05:19:10.903Z,99565.63
2023-01-01T05:19:42.390Z,99570.78
2023-01-01T05:20:13.779Z,99564.53
2023-01-01T05:20:45.200Z,99557.44
2023-01-01T05:21:16.680Z,99558.78
2023-01-01T05:21:48.152Z,99557.97
2023-01-01T05:22:19.596Z,99570.78
2023-01-01T05:22:51.123Z,99556.34
2023-01-01T05:23:22.536Z,99565.13
2023-01-01T05:23:53.906Z,99566.72
2023-01-01T05:24:25.341Z,99568.34
2023-01-01T05:24:56.752Z,99594.81
2023-01-01T05:25:28.170Z,99568.34
2023-01-01T05:25:59.699Z,99576.53
2023-01-01T05:26:31.140Z,99576.00
2023-01-01T05:27:02.629Z,99569.16
2023-01-01T05:27:34.045Z,99586.91
2023-01-01T05:28:05.463Z,99585.81
2023-01-01T05:28:36.992Z,99574.69
2023-01-01T05:29:15.518Z,99571.38
2023-01-01T05:29:48.131Z,99573.81
2023-01-01T05:30:19.563Z,99579.47
2023-01-01T05:30:53.832Z,99575.72
2023-01-01T05:31:25.373Z,99581.97
2023-01-01T05:31:56.959Z,99579.25
2023-01-01T05:32:28.510Z,99580.88
2023-01-01T05:32:59.963Z,99580.88
2023-01-01T05:33:31.455Z,99584.41
2023-01-01T05:35:03.260Z,99587.94
2023-01-01T05:35:34.697Z,99575.41
2023-01-01T05:36:06.169Z,99585.22
2023-01-01T05:36:37.575Z,99578.16
2023-01-01T05:37:09.013Z,99578.97
2023-01-01T05:37:40.605Z,99601.38
2023-01-01T05:38:12.007Z,99588.25
2023-01-01T05:38:43.509Z,99587.13
2023-01-01T05:39:14.934Z,99587.44
2023-01-01T05:39:46.327Z,99599.16
2023-01-01T05:40:17.730Z,99597.75
2023-01-01T05:40:49.195Z,99607.03
2023-01-01T05:41:20.612Z,99593.41
2023-01-01T05:41:52.032Z,99601.88
2023-01-01T05:42:23.448Z,99598.03
2023-01-01T05:42:54.942Z,99592.06
2023-01-01T05:43:26.403Z,99597.22
2023-01-01T05:43:57.828Z,99583.38
2023-01-01T05:44:29.239Z,99596.72
2023-01-01T05:45:00.685Z,99583.09
2023-01-01T05:45:35.235Z,99586.91
2023-01-01T05:46:06.757Z,99584.41
2023-01-01T05:46:38.279Z,99611.16
2023-01-01T05:47:09.681Z,99590.16
2023-01-01T05:47:41.121Z,99600.25
2023-01-01T05:48:12.673Z,99589.66
2023-01-01T05:48:44.141Z,99608.66
2023-01-01T05:49:15.580Z,99598.03
2023-01-01T05:49:47.036Z,99599.16
2023-01-01T05:50:18.457Z,99595.91
2023-01-01T05:50:49.880Z,99596.72
2023-01-01T05:51:21.308Z,99593.25
2023-01-01T05:51:52.797Z,99586.91
2023-01-01T05:52:26.683Z,99587.22
2023-01-01T05:52:58.491Z,99583.09
2023-01-01T05:53:29.985Z,99579.25
2023-01-01T05:54:01.490Z,99569.16
2023-01-01T05:54:32.893Z,99578.44
2023-01-01T05:55:04.335Z,99582.28
2023-01-01T05:55:35.792Z,99582.06
2023-01-01T05:56:07.210Z,99583.91
2023-01-01T05:56:38.675Z,99598.34
2023-01-01T05:57:10.085Z,99590.16
2023-01-01T05:57:41.575Z,99609.25
2023-01-01T05:58:12.998Z,99590.16
2023-01-01T05:58:44.492Z,99592.38
2023-01-01T05:59:15.927Z,99588.03
2023-01-01T05:59:47.347Z,99599.22
2023-01-01T06:00:18.885Z,99590.25
2023-01-01T06:00:50.417Z,99594.59
2023-01-01T06:01:21.890Z,99609.53
2023-01-01T06:01:53.507Z,99602.16
2023-01-01T06:02:25.043Z,99606.50
2023-01-01T06:02:56.537Z,99606.50
2023-01-01T06:03:27.984Z,99610.34
2023-01-01T06:03:59.589Z,99613.38
2023-01-01T06:04:31.186Z,99616.09
2023-01-01T06:05:02.644Z,99614.41
2023-01-01T06:05:34.094Z,99619.84
2023-01-01T06:06:05.529Z,99623.38
2023-01-01T06:06:36.919Z,99610.56
2023-01-01T06:07:08.351Z,99619.56
2023-01-01T06:07:43.303Z,99619.34
2023-01-01T06:08:19.507Z,99616.31
2023-01-01T06:08:50.906Z,99628.84
2023-01-01T06:09:22.424Z,99636.22
2023-01-01T06:09:53.840Z,99628.31
2023-01-01T06:10:25.273Z,99630.75
2023-01-01T06:10:56.725Z,99629.66
2023-01-01T06:11:28.141Z,99632.66
2023-01-01T06:11:59.598Z,99621.75
2023-01-01T06:12:31.023Z,99624.78
2023-01-01T06:13:04.596Z,99627.50
2023-01-01T06:13:38.149Z,99625.31
2023-01-01T06:14:09.751Z,99631.88
2023-01-01T06:14:41.217Z,99635.91